Data for 02/23/2016

Time Sea-Level Adjusted Pressure Absolute Pressure Temperature Relative Humidity Dew Point   
(mb) (inHg) (mb) (inHg) (C) (F) (%) (C) (F)
00:05 1024 30.24 853 25.19 -2.1 28.1 57 -9.6 14.8
00:10 1024 30.24 853 25.19 -2 28.3 58 -9.3 15.3
00:15 1024 30.24 853 25.19 -2.1 28.3 57 -9.5 14.9
00:20 1024 30.24 853 25.19 -2.1 28.2 58 -9.2 15.4
00:25 1024 30.24 853 25.19 -2 28.5 58 -9.1 15.7
00:30 1024 30.24 853 25.19 -2 28.4 58 -9.3 15.3
00:35 1024 30.24 853 25.19 -2 28.5 57 -9.4 15.1
00:40 1024 30.24 854 25.22 -1.9 28.5 57 -9.4 15.1
00:45 1024 30.24 854 25.22 -1.9 28.6 56 -9.4 15
00:50 1024 30.24 854 25.22 -1.9 28.6 57 -9.3 15.3
00:55 1024 30.24 854 25.22 -1.8 28.7 58 -9 15.7
01:00 1024 30.24 854 25.22 -1.9 28.6 57 -9.2 15.4
01:05 1025 30.27 854 25.22 -1.9 28.6 57 -9.2 15.5
01:10 1025 30.27 854 25.22 -1.9 28.7 58 -9.1 15.7
01:15 1025 30.27 854 25.22 -1.8 28.7 58 -8.9 15.9
01:20 1025 30.27 854 25.22 -1.9 28.7 58 -9 15.8
01:25 1025 30.27 854 25.22 -1.9 28.6 58 -9.1 15.5
01:30 1025 30.27 854 25.22 -1.8 28.7 57 -9.2 15.5
01:35 1025 30.27 854 25.22 -1.8 28.8 58 -9 15.9
01:40 1025 30.27 854 25.22 -1.8 28.8 58 -9 15.8
01:45 1025 30.27 854 25.22 -1.7 28.9 57 -9.2 15.5
01:50 1025 30.27 854 25.22 -1.7 28.9 58 -9 15.8
01:55 1025 30.27 854 25.22 -1.7 29 58 -9 15.8
02:00 1025 30.27 854 25.22 -1.7 28.9 57 -9.2 15.4
02:05 1025 30.27 854 25.22 -1.7 28.9 57 -9.2 15.5
02:10 1025 30.27 854 25.22 -1.7 29 58 -8.9 15.9
02:15 1025 30.27 854 25.22 -1.7 28.9 57 -9.2 15.4
02:20 1025 30.27 854 25.22 -1.6 29.1 56 -9.2 15.5
02:25 1025 30.27 854 25.22 -1.6 29.1 57 -9.1 15.6
02:30 1025 30.27 854 25.22 -1.7 28.9 57 -9.1 15.5
02:35 1025 30.27 854 25.22 -1.7 28.9 58 -9 15.8
02:40 1025 30.27 854 25.22 -1.8 28.8 58 -9 15.9
02:45 1025 30.27 854 25.22 -1.7 28.9 58 -9 15.8
02:50 1025 30.27 854 25.22 -1.7 28.9 58 -8.9 16
02:55 1025 30.27 855 25.25 -1.7 28.9 58 -8.9 15.9
03:00 1025 30.27 855 25.25 -1.7 28.9 58 -9 15.9
03:05 1025 30.27 855 25.25 -1.7 28.9 60 -8.6 16.5
03:10 1025 30.27 855 25.25 -1.8 28.7 60 -8.7 16.4
03:15 1025 30.27 855 25.25 -1.8 28.7 60 -8.7 16.4
03:20 1025 30.27 855 25.25 -1.8 28.7 60 -8.6 16.5
03:25 1025 30.27 855 25.25 -1.9 28.6 60 -8.6 16.5
03:30 1025 30.27 855 25.25 -1.9 28.5 61 -8.5 16.7
03:35 1025 30.27 855 25.25 -2 28.4 60 -8.8 16.2
03:40 1025 30.27 855 25.25 -2.1 28.3 61 -8.6 16.4
03:45 1025 30.27 855 25.25 -2.2 28.1 61 -8.6 16.5
03:50 1025 30.27 855 25.25 -2.2 28 60 -8.9 15.9
03:55 1025 30.27 855 25.25 -2.2 28 59 -9.1 15.6
04:00 1025 30.27 855 25.25 -2.2 28.1 59 -9.2 15.4
04:05 1025 30.27 855 25.25 -2.3 27.9 58 -9.4 15.1
04:10 1025 30.27 855 25.25 -2.4 27.8 58 -9.4 15
04:15 1025 30.27 855 25.25 -2.4 27.6 59 -9.4 15
04:20 1025 30.27 855 25.25 -2.5 27.4 59 -9.4 15.1
04:25 1025 30.27 855 25.25 -2.9 26.9 61 -9.3 15.2
04:30 1025 30.27 855 25.25 -3.1 26.4 61 -9.6 14.7
04:35 1025 30.27 855 25.25 -3 26.5 60 -9.8 14.3
04:40 1025 30.27 855 25.25 -3 26.7 59 -9.8 14.3
04:45 1026 30.3 855 25.25 -3 26.5 59 -10 14.1
04:50 1026 30.3 855 25.25 -3.1 26.5 58 -10.2 13.6
04:55 1026 30.3 855 25.25 -3.1 26.4 58 -10.2 13.7
05:00 1026 30.3 855 25.25 -3.2 26.2 59 -10.2 13.6
05:05 1026 30.3 855 25.25 -3.3 26.1 58 -10.3 13.4
05:10 1026 30.3 855 25.25 -3.3 26 59 -10.3 13.4
05:15 1026 30.3 855 25.25 -3.3 26 58 -10.5 13.1
05:20 1026 30.3 855 25.25 -3.4 25.9 59 -10.4 13.3
05:25 1026 30.3 855 25.25 -3.4 25.9 58 -10.4 13.2
05:30 1026 30.3 855 25.25 -3.4 25.9 59 -10.3 13.4
05:35 1026 30.3 855 25.25 -3.5 25.7 59 -10.4 13.3
05:40 1026 30.3 855 25.25 -3.8 25.2 60 -10.5 13.2
05:45 1026 30.3 855 25.25 -4 24.8 60 -10.6 12.9
05:50 1026 30.3 855 25.25 -3.8 25.1 59 -10.8 12.6
05:55 1026 30.3 855 25.25 -3.6 25.5 58 -10.7 12.7
06:00 1026 30.3 855 25.25 -3.6 25.4 58 -10.7 12.7
06:05 1026 30.3 855 25.25 -3.7 25.3 59 -10.6 12.9
06:10 1026 30.3 855 25.25 -3.8 25.1 59 -10.7 12.7
06:15 1026 30.3 855 25.25 -4.1 24.6 61 -10.6 13
06:20 1026 30.3 855 25.25 -4.4 24.1 62 -10.7 12.7
06:25 1026 30.3 855 25.25 -4.5 23.9 62 -10.8 12.6
06:30 1026 30.3 855 25.25 -4.5 23.9 61 -10.9 12.4
06:35 1026 30.3 855 25.25 -4.3 24.3 60 -10.9 12.4
06:40 1026 30.3 855 25.25 -4.1 24.6 59 -11 12.3
06:45 1026 30.3 855 25.25 -4 24.8 59 -10.9 12.4
06:50 1026 30.3 855 25.25 -4 24.8 59 -10.8 12.6
06:55 1026 30.3 856 25.28 -4.2 24.5 60 -10.8 12.5
07:00 1026 30.3 856 25.28 -4.5 24 62 -10.7 12.7
07:05 1026 30.3 856 25.28 -4.8 23.4 62 -11 12.1
07:10 1026 30.3 856 25.28 -4.7 23.5 61 -11.1 12
07:15 1026 30.3 856 25.28 -4.4 24 60 -11.2 11.9
07:20 1026 30.3 856 25.28 -4.4 24.1 61 -10.9 12.4
07:25 1026 30.3 856 25.28 -4.7 23.5 64 -10.6 13
07:30 1026 30.3 856 25.28 -5.2 22.6 66 -10.6 12.8
07:35 1026 30.3 856 25.28 -5.4 22.3 67 -10.5 13
07:40 1026 30.3 856 25.28 -5.4 22.3 66 -10.8 12.5
07:45 1026 30.3 856 25.28 -5.3 22.5 66 -10.7 12.8
07:50 1026 30.3 856 25.28 -5.2 22.7 64 -10.9 12.4
07:55 1026 30.3 856 25.28 -5.1 22.8 65 -10.7 12.7
08:00 1026 30.3 856 25.28 -5.2 22.6 65 -10.7 12.7
08:05 1026 30.3 856 25.28 -5.4 22.3 66 -10.7 12.8
08:10 1026 30.3 856 25.28 -5.6 21.9 67 -10.8 12.5
08:15 1027 30.33 856 25.28 -5.5 22.1 66 -10.8 12.5
08:20 1026 30.3 856 25.28 -5.7 21.8 67 -10.8 12.6
08:25 1026 30.3 856 25.28 -5.7 21.7 67 -11 12.2
08:30 1026 30.3 856 25.28 -5.6 21.9 66 -10.9 12.3
08:35 1026 30.3 856 25.28 -5.4 22.3 64 -11.1 11.9
08:40 1026 30.3 856 25.28 -5.2 22.6 63 -11.1 12
08:45 1026 30.3 856 25.28 -5.1 22.8 63 -11.1 12.1
08:50 1026 30.3 856 25.28 -5 23 63 -11.1 12
08:55 1026 30.3 856 25.28 -4.8 23.3 62 -11.1 12.1
09:00 1026 30.3 856 25.28 -4.5 23.9 60 -11 12.2
09:05 1027 30.33 856 25.28 -4.2 24.5 59 -11 12.3
09:10 1027 30.33 856 25.28 -3.9 24.9 59 -10.8 12.5
09:15 1027 30.33 856 25.28 -3.7 25.4 58 -10.8 12.5
09:20 1027 30.33 856 25.28 -3.7 25.4 58 -10.9 12.4
09:25 1027 30.33 856 25.28 -3.3 26.1 56 -10.8 12.6
09:30 1027 30.33 856 25.28 -3.2 26.2 56 -10.7 12.7
09:35 1027 30.33 856 25.28 -3.2 26.2 56 -10.7 12.7
09:40 1027 30.33 856 25.28 -2.6 27.2 54 -10.6 12.9
09:45 1027 30.33 856 25.28 -2.8 27 56 -10.3 13.5
09:50 1027 30.33 856 25.28 -3 26.7 56 -10.6 12.8
09:55 1027 30.33 856 25.28 -2.5 27.4 53 -10.8 12.5
10:00 1027 30.33 856 25.28 -2.4 27.8 52 -10.9 12.4
10:05 1027 30.33 856 25.28 -2.5 27.5 52 -11 12.2
10:10 1027 30.33 856 25.28 -2.5 27.4 52 -11.2 11.8
10:15 1027 30.33 856 25.28 -2.7 27.2 53 -10.9 12.3
10:20 1027 30.33 856 25.28 -2.7 27.2 54 -10.7 12.7
10:25 1027 30.33 856 25.28 -1.9 28.5 52 -10.6 13
10:30 1027 30.33 856 25.28 -1.8 28.8 51 -10.6 12.9
10:35 1026 30.3 856 25.28 -2 28.5 52 -10.6 13
10:40 1026 30.3 856 25.28 -1.5 29.3 49 -11 12.2
10:45 1026 30.3 856 25.28 -0.8 30.5 46 -11.2 11.9
10:50 1026 30.3 856 25.28 -0.3 31.5 44 -11.1 12
10:55 1026 30.3 856 25.28 -0.3 31.4 46 -10.6 13
11:00 1026 30.3 856 25.28 0.2 32.3 42 -11.3 11.7
11:05 1026 30.3 856 25.28 0.3 32.5 44 -10.6 12.9
11:10 1026 30.3 856 25.28 0.2 32.4 42 -11.4 11.5
11:15 1026 30.3 856 25.28 0.4 32.7 42 -11 12.2
11:20 1026 30.3 856 25.28 0.3 32.5 44 -10.5 13.1
11:25 1026 30.3 855 25.25 0 32 45 -10.5 13.1
11:30 1026 30.3 855 25.25 -0.4 31.4 44 -11.2 11.8
11:35 1026 30.3 855 25.25 0.7 33.3 40 -11.3 11.7
11:40 1026 30.3 855 25.25 0.7 33.2 40 -11.6 11.2
11:45 1026 30.3 855 25.25 1.5 34.7 38 -11.3 11.7
11:50 1026 30.3 855 25.25 0.7 33.2 45 -10 14
11:55 1026 30.3 855 25.25 0.1 32.1 43 -11.1 12.1
12:00 1026 30.3 855 25.25 1.1 34 41 -10.9 12.4
12:05 1026 30.3 855 25.25 1.9 35.4 38 -10.9 12.5
12:10 1026 30.3 855 25.25 1.7 35 39 -10.9 12.3
12:15 1026 30.3 855 25.25 0.4 32.8 42 -11.2 11.8
12:20 1026 30.3 855 25.25 0.7 33.2 40 -11.5 11.2
12:25 1026 30.3 855 25.25 0.5 32.8 41 -11.2 11.8
12:30 1026 30.3 855 25.25 1.4 34.6 36 -11.9 10.5
12:35 1026 30.3 855 25.25 1.7 35.1 37 -11.3 11.6
12:40 1026 30.3 855 25.25 2.3 36.1 36 -11.5 11.3
12:45 1026 30.3 855 25.25 2.8 37.1 33 -11.9 10.5
12:50 1026 30.3 855 25.25 2.7 36.8 33 -11.9 10.6
12:55 1026 30.3 855 25.25 2.6 36.6 34 -11.7 11
13:00 1026 30.3 855 25.25 2.3 36.1 33 -12.3 9.9
13:05 1026 30.3 855 25.25 2.8 37 33 -12 10.4
13:10 1026 30.3 855 25.25 3.1 37.6 32 -11.9 10.6
13:15 1025 30.27 855 25.25 3 37.4 33 -11.9 10.6
13:20 1025 30.27 854 25.22 2.6 36.7 33 -12.1 10.2
13:25 1025 30.27 854 25.22 3.1 37.5 31 -12.3 9.8
13:30 1025 30.27 854 25.22 3.6 38.4 31 -12 10.5
13:35 1025 30.27 854 25.22 3.8 38.9 31 -11.8 10.8
13:40 1025 30.27 854 25.22 3.3 37.9 33 -11.3 11.6
13:45 1025 30.27 854 25.22 3.3 38 32 -12 10.4
13:50 1025 30.27 854 25.22 3.5 38.3 31 -12.1 10.2
13:55 1024 30.24 854 25.22 3.4 38.1 31 -12.2 10.1
14:00 1024 30.24 853 25.19 3.3 38 31 -12.3 9.9
14:05 1024 30.24 853 25.19 3.6 38.4 30 -12.4 9.7
14:10 1024 30.24 853 25.19 4 39.2 29 -12.4 9.7
14:15 1024 30.24 853 25.19 4.2 39.5 29 -12.6 9.4
14:20 1024 30.24 853 25.19 4.3 39.7 30 -11.8 10.8
14:25 1024 30.24 853 25.19 3.1 37.7 32 -12 10.3
14:30 1024 30.24 853 25.19 3.7 38.7 30 -12.1 10.2
14:35 1024 30.24 853 25.19 4.4 40 29 -12.3 9.8
14:40 1024 30.24 853 25.19 4.6 40.3 28 -12.3 9.8
14:45 1023 30.21 853 25.19 4.8 40.7 28 -12.3 9.9
14:50 1023 30.21 853 25.19 4.1 39.4 29 -12.3 9.8
14:55 1023 30.21 853 25.19 3.5 38.4 31 -12 10.4
15:00 1023 30.21 852 25.16 3.5 38.2 29 -13.1 8.4
15:05 1023 30.21 852 25.16 4.3 39.8 29 -12.2 10.1
15:10 1023 30.21 852 25.16 4.4 40 27 -12.9 8.8
15:15 1023 30.21 852 25.16 4 39.2 29 -12.4 9.6
15:20 1023 30.21 852 25.16 4.6 40.3 27 -12.9 8.8
15:25 1023 30.21 852 25.16 5.3 41.5 26 -12.8 9
15:30 1023 30.21 852 25.16 5.2 41.4 25 -13.1 8.5
15:35 1023 30.21 852 25.16 5.2 41.3 26 -13 8.6
15:40 1023 30.21 852 25.16 4.6 40.3 26 -13.5 7.7
15:45 1023 30.21 852 25.16 4.7 40.5 26 -13.1 8.4
15:50 1023 30.21 852 25.16 4 39.2 28 -13 8.6
15:55 1023 30.21 852 25.16 4.2 39.6 27 -13.2 8.2
16:00 1023 30.21 852 25.16 4.6 40.3 26 -13.1 8.4
16:05 1023 30.21 852 25.16 4.9 40.8 28 -12.3 9.8
16:10 1023 30.21 852 25.16 4.3 39.7 29 -12.4 9.7
16:15 1023 30.21 852 25.16 5 41 28 -12.2 10
16:20 1023 30.21 852 25.16 5.4 41.7 28 -11.9 10.6
16:25 1023 30.21 852 25.16 5.4 41.7 28 -11.8 10.7
16:30 1023 30.21 852 25.16 5.5 41.8 28 -11.7 10.9
16:35 1023 30.21 852 25.16 4.9 40.8 30 -11.5 11.4
16:40 1023 30.21 852 25.16 3.6 38.4 30 -12.3 9.9
16:45 1023 30.21 852 25.16 3.9 39 30 -12.3 9.9
16:50 1023 30.21 852 25.16 4.5 40.1 29 -12.2 10.1
16:55 1023 30.21 852 25.16 4.9 40.8 28 -12.2 10.1
17:00 1023 30.21 852 25.16 4.9 40.8 28 -12 10.3
17:05 1023 30.21 852 25.16 5.2 41.3 27 -12.2 10.1
17:10 1023 30.21 852 25.16 5.5 41.9 27 -12 10.3
17:15 1023 30.21 852 25.16 5.5 41.9 27 -12.1 10.1
17:20 1023 30.21 852 25.16 5.8 42.4 26 -12.3 9.9
17:25 1023 30.21 852 25.16 5.1 41.1 29 -11.6 11.1
17:30 1023 30.21 852 25.16 5 41 28 -12.2 10
17:35 1023 30.21 852 25.16 5.2 41.4 27 -12.4 9.7
17:40 1023 30.21 852 25.16 4.8 40.6 28 -12.1 10.1
17:45 1023 30.21 852 25.16 4.7 40.4 29 -12 10.5
17:50 1023 30.21 852 25.16 4.2 39.6 29 -12.3 9.9
17:55 1023 30.21 852 25.16 3.6 38.5 31 -12.1 10.2
18:00 1023 30.21 852 25.16 4.2 39.5 30 -11.8 10.8
18:05 1023 30.21 852 25.16 4.4 39.8 32 -11 12.3
18:10 1023 30.21 852 25.16 4.2 39.6 32 -11 12.3
18:15 1023 30.21 852 25.16 3.5 38.3 34 -10.9 12.4
18:20 1023 30.21 852 25.16 3.6 38.6 33 -11.4 11.6
18:25 1023 30.21 852 25.16 4.2 39.6 32 -11 12.2
18:30 1023 30.21 852 25.16 4.4 39.9 32 -10.9 12.3
18:35 1023 30.21 852 25.16 4.2 39.6 33 -10.8 12.5
18:40 1023 30.21 852 25.16 3.7 38.6 34 -10.6 12.8
18:45 1023 30.21 852 25.16 3 37.4 36 -10.7 12.7
18:50 1023 30.21 852 25.16 2.9 37.3 35 -11 12.2
18:55 1023 30.21 852 25.16 2.9 37.2 37 -10.4 13.4
19:00 1023 30.21 852 25.16 2.4 36.4 38 -10.6 12.9
19:05 1023 30.21 852 25.16 2.2 36 39 -10.5 13.1
19:10 1023 30.21 852 25.16 1.9 35.4 41 -10.1 13.7
19:15 1023 30.21 852 25.16 1.6 35 41 -10.2 13.6
19:20 1023 30.21 852 25.16 1.6 34.8 40 -10.6 12.9
19:25 1023 30.21 852 25.16 1.5 34.7 42 -10 14
19:30 1023 30.21 852 25.16 1.2 34.2 44 -9.8 14.4
19:35 1023 30.21 852 25.16 0.6 33 46 -9.8 14.3
19:40 1023 30.21 852 25.16 0.1 32.3 48 -9.7 14.5
19:45 1023 30.21 852 25.16 0.2 32.4 47 -9.8 14.3
19:50 1023 30.21 852 25.16 0 32.1 48 -9.8 14.4
19:55 1023 30.21 852 25.16 -0.1 31.8 48 -9.8 14.3
20:00 1023 30.21 852 25.16 -0.2 31.6 50 -9.4 15.1
20:05 1023 30.21 852 25.16 -0.5 31.1 50 -9.7 14.6
20:10 1023 30.21 852 25.16 -0.7 30.7 50 -9.9 14.2
20:15 1023 30.21 852 25.16 -0.7 30.8 50 -10 14.1
20:20 1023 30.21 852 25.16 -0.8 30.6 50 -10 14.1
20:25 1023 30.21 852 25.16 -0.8 30.6 51 -9.8 14.3
20:30 1023 30.21 852 25.16 -0.8 30.6 50 -9.8 14.3
20:35 1023 30.21 852 25.16 -0.9 30.4 51 -9.8 14.3
20:40 1023 30.21 852 25.16 -0.9 30.4 50 -10.1 13.8
20:45 1023 30.21 852 25.16 -0.9 30.5 48 -10.5 13.1
20:50 1022 30.18 852 25.16 -0.9 30.3 48 -10.5 13
20:55 1022 30.18 852 25.16 -0.9 30.3 48 -10.6 13
21:00 1022 30.18 852 25.16 -1.2 29.8 48 -10.9 12.4
21:05 1022 30.18 852 25.16 -1.4 29.4 48 -11.1 12
21:10 1023 30.21 852 25.16 -1.4 29.4 48 -11.1 12.1
21:15 1023 30.21 852 25.16 -1.2 29.8 46 -11.4 11.5
21:20 1023 30.21 852 25.16 -1.1 30 47 -11.2 11.9
21:25 1023 30.21 852 25.16 -1.1 30 47 -11.1 12.1
21:30 1023 30.21 852 25.16 -1.4 29.6 51 -10.3 13.5
21:35 1023 30.21 852 25.16 -1.9 28.5 50 -11 12.2
21:40 1023 30.21 852 25.16 -1.9 28.7 49 -11.2 11.8
21:45 1023 30.21 852 25.16 -2 28.3 50 -11.1 11.9
21:50 1023 30.21 852 25.16 -2.1 28.1 49 -11.4 11.4
21:55 1023 30.21 852 25.16 -2.2 28 50 -11.4 11.5
22:00 1023 30.21 852 25.16 -2.3 27.9 47 -12 10.4
22:05 1023 30.21 852 25.16 -2.1 28.2 46 -12.3 9.8
22:10 1023 30.21 852 25.16 -1.7 28.9 44 -12.6 9.3
22:15 1023 30.21 852 25.16 -1.5 29.3 41 -13.2 8.3
22:20 1023 30.21 852 25.16 -1.2 29.8 41 -12.9 8.7
22:25 1023 30.21 852 25.16 -1.2 29.8 41 -12.7 9.1
22:30 1023 30.21 852 25.16 -1.2 29.9 41 -12.7 9.1
22:35 1023 30.21 852 25.16 -1.2 29.9 40 -13 8.6
22:40 1023 30.21 852 25.16 -1 30.1 39 -13.4 7.8
22:45 1023 30.21 852 25.16 -0.8 30.5 39 -13.3 8.1
22:50 1023 30.21 852 25.16 -1.1 30.1 43 -12.2 10.1
22:55 1023 30.21 852 25.16 -1.6 29.2 42 -12.9 8.8
23:00 1023 30.21 852 25.16 -1.8 28.8 41 -13.3 8.1
23:05 1023 30.21 852 25.16 -1.8 28.8 46 -11.8 10.7
23:10 1023 30.21 852 25.16 -1.9 28.5 44 -12.7 9.2
23:15 1023 30.21 852 25.16 -1.9 28.5 43 -13 8.7
23:20 1023 30.21 852 25.16 -2 28.4 46 -12.3 9.9
23:25 1023 30.21 852 25.16 -2.5 27.5 46 -12.6 9.4
23:30 1023 30.21 852 25.16 -2.5 27.6 43 -13.5 7.7
23:35 1023 30.21 852 25.16 -2.3 28 43 -13.3 8.1
23:40 1023 30.21 852 25.16 -1.8 28.7 35 -15.2 4.6
23:45 1023 30.21 852 25.16 -1.3 29.6 33 -15.7 3.8
23:50 1023 30.21 852 25.16 -1.1 30.1 33 -15.3 4.4
23:55 1023 30.21 853 25.19 -0.9 30.3 31 -15.9 3.3
24:00 1023 30.21 852 25.16 -0.8 30.6 31 -16 3.2